danielwAdministrator
(Moderator)
Sun May 17 2009 01:25 PM
Re: Development in Cuba Jamaica Area

Kingston Jamaica Airport Observations for the last 6 hours.
Last four obs show a veering wind. Indicative of a N to NE movement of system generating the wind. This is a rough estimate.
14z 270 at 7kt system should be North of Airport
17z 330 at 10kt system should be NE of Airport

MKJP 171700Z 33010KT 9999 FEW018 BKN090 BKN220 25/21 Q1012
MKJP 171600Z 31008KT 9999 FEW022 SCT034 BKN090 25/21 Q1012
MKJP 171500Z 28005KT 99999 -RA FEW018 BKN080 24/21 Q1013
MKJP 171400Z 27007KT 99999 -RA FEW022 BKN080 24/21 Q1012
MKJP 171300Z 32008KT 9999 -RA FEW022 OVC080 23/21 Q1012
MKJP 171200Z 09008KT 9999 -RA FEW022 OVC080 24/22 Q1012



Note: This is NOT an official page. It is run by weather hobbyists and should not be used as a replacement for official sources. 
CFHC's main servers are currently located at Hostdime.com in Orlando, FL.
Image Server Network thanks to Mike Potts and Amazon Web Services. If you have static file hosting space that allows dns aliasing contact us to help out! Some Maps Provided by:
Great thanks to all who donated and everyone who uses the site as well. Site designed for 800x600+ resolution
When in doubt, take the word of the National Hurricane Center